sensor_id;sensor_type;location;lat;lon;timestamp;pressure;altitude;pressure_sealevel;temperature;humidity
43820;BME280;67762;52.476;6.046;2023-03-14T00:03:31;98767.84;;;11.31;76.25
43820;BME280;67762;52.476;6.046;2023-03-14T00:06:02;98755.91;;;11.09;77.57
43820;BME280;67762;52.476;6.046;2023-03-14T00:08:27;98753.78;;;10.93;78.41
43820;BME280;67762;52.476;6.046;2023-03-14T00:10:53;98761.66;;;10.81;78.85
43820;BME280;67762;52.476;6.046;2023-03-14T00:13:18;98773.84;;;10.71;80.15
43820;BME280;67762;52.476;6.046;2023-03-14T00:15:44;98773.69;;;10.59;80.31
43820;BME280;67762;52.476;6.046;2023-03-14T00:18:09;98758.78;;;10.51;81.44
43820;BME280;67762;52.476;6.046;2023-03-14T00:20:35;98759.63;;;10.45;81.79
43820;BME280;67762;52.476;6.046;2023-03-14T00:23:01;98750.63;;;10.40;81.90
43820;BME280;67762;52.476;6.046;2023-03-14T00:25:27;98746.38;;;10.32;81.87
43820;BME280;67762;52.476;6.046;2023-03-14T00:27:53;98738.41;;;10.26;82.59
43820;BME280;67762;52.476;6.046;2023-03-14T00:30:19;98729.19;;;10.22;82.41
43820;BME280;67762;52.476;6.046;2023-03-14T00:32:45;98751.13;;;10.24;82.47
43820;BME280;67762;52.476;6.046;2023-03-14T00:35:11;98739.84;;;10.22;82.66
43820;BME280;67762;52.476;6.046;2023-03-14T00:37:36;98732.09;;;10.14;82.42
43820;BME280;67762;52.476;6.046;2023-03-14T00:40:02;98740.09;;;10.07;82.92
43820;BME280;67762;52.476;6.046;2023-03-14T00:42:31;98734.16;;;10.05;82.80
43820;BME280;67762;52.476;6.046;2023-03-14T00:44:57;98744.00;;;10.05;82.87
43820;BME280;67762;52.476;6.046;2023-03-14T00:47:22;98751.19;;;10.04;82.90
43820;BME280;67762;52.476;6.046;2023-03-14T00:49:48;98754.28;;;10.01;83.27
43820;BME280;67762;52.476;6.046;2023-03-14T00:52:14;98759.78;;;9.99;83.51
43820;BME280;67762;52.476;6.046;2023-03-14T00:54:39;98760.66;;;9.93;83.77
43820;BME280;67762;52.476;6.046;2023-03-14T00:57:05;98754.69;;;9.91;83.87
43820;BME280;67762;52.476;6.046;2023-03-14T00:59:30;98749.38;;;9.91;83.83
43820;BME280;67762;52.476;6.046;2023-03-14T01:01:56;98743.03;;;9.92;83.96
43820;BME280;67762;52.476;6.046;2023-03-14T01:04:21;98747.13;;;9.88;84.35
43820;BME280;67762;52.476;6.046;2023-03-14T01:06:48;98751.84;;;9.86;84.08
43820;BME280;67762;52.476;6.046;2023-03-14T01:09:14;98753.50;;;9.87;84.23
43820;BME280;67762;52.476;6.046;2023-03-14T01:11:40;98755.75;;;9.90;84.29
43820;BME280;67762;52.476;6.046;2023-03-14T01:14:06;98763.69;;;9.97;84.41
43820;BME280;67762;52.476;6.046;2023-03-14T01:16:34;98745.44;;;10.00;83.70
43820;BME280;67762;52.476;6.046;2023-03-14T01:19:01;98744.84;;;9.98;83.55
43820;BME280;67762;52.476;6.046;2023-03-14T01:21:29;98736.44;;;10.02;83.73
43820;BME280;67762;52.476;6.046;2023-03-14T01:23:56;98732.13;;;10.00;83.50
43820;BME280;67762;52.476;6.046;2023-03-14T01:26:24;98743.44;;;9.96;83.52
43820;BME280;67762;52.476;6.046;2023-03-14T01:28:52;98752.84;;;9.92;83.33
43820;BME280;67762;52.476;6.046;2023-03-14T01:31:18;98750.19;;;9.92;83.54
43820;BME280;67762;52.476;6.046;2023-03-14T01:33:45;98737.09;;;9.90;83.59
43820;BME280;67762;52.476;6.046;2023-03-14T01:36:11;98743.66;;;9.88;83.80
43820;BME280;67762;52.476;6.046;2023-03-14T01:38:38;98737.94;;;9.91;83.53
43820;BME280;67762;52.476;6.046;2023-03-14T01:41:09;98733.59;;;9.96;83.30
43820;BME280;67762;52.476;6.046;2023-03-14T01:43:37;98737.88;;;9.97;83.03
43820;BME280;67762;52.476;6.046;2023-03-14T01:48:37;98729.69;;;9.99;82.80
43820;BME280;67762;52.476;6.046;2023-03-14T01:51:07;98729.06;;;9.97;82.36
43820;BME280;67762;52.476;6.046;2023-03-14T01:53:35;98732.97;;;9.94;82.16
43820;BME280;67762;52.476;6.046;2023-03-14T01:56:02;98749.78;;;9.95;82.37
43820;BME280;67762;52.476;6.046;2023-03-14T01:58:30;98739.53;;;9.92;81.91
43820;BME280;67762;52.476;6.046;2023-03-14T02:01:02;98739.53;;;9.92;81.93
43820;BME280;67762;52.476;6.046;2023-03-14T02:03:30;98746.09;;;9.89;81.79
43820;BME280;67762;52.476;6.046;2023-03-14T02:05:59;98732.81;;;9.83;81.80
43820;BME280;67762;52.476;6.046;2023-03-14T02:08:30;98737.13;;;9.77;82.08
43820;BME280;67762;52.476;6.046;2023-03-14T02:11:00;98741.44;;;9.72;82.62
43820;BME280;67762;52.476;6.046;2023-03-14T02:13:49;98744.75;;;9.67;83.26
43820;BME280;67762;52.476;6.046;2023-03-14T02:16:43;98740.25;;;9.61;83.12
43820;BME280;67762;52.476;6.046;2023-03-14T02:19:10;98733.50;;;9.59;83.39
43820;BME280;67762;52.476;6.046;2023-03-14T02:22:02;98739.47;;;9.54;83.68
43820;BME280;67762;52.476;6.046;2023-03-14T02:27:25;98719.63;;;9.44;83.97
43820;BME280;67762;52.476;6.046;2023-03-14T02:29:55;98717.97;;;9.36;84.50
43820;BME280;67762;52.476;6.046;2023-03-14T02:32:23;98726.81;;;9.30;84.90
43820;BME280;67762;52.476;6.046;2023-03-14T02:34:53;98714.34;;;9.24;84.80
43820;BME280;67762;52.476;6.046;2023-03-14T02:37:22;98716.81;;;9.19;85.13
43820;BME280;67762;52.476;6.046;2023-03-14T02:39:48;98719.88;;;9.16;85.59
43820;BME280;67762;52.476;6.046;2023-03-14T02:42:17;98722.31;;;9.17;86.01
43820;BME280;67762;52.476;6.046;2023-03-14T02:44:51;98719.88;;;9.16;85.95
43820;BME280;67762;52.476;6.046;2023-03-14T02:47:18;98719.03;;;9.15;86.17
43820;BME280;67762;52.476;6.046;2023-03-14T02:49:46;98698.59;;;9.16;85.88
43820;BME280;67762;52.476;6.046;2023-03-14T02:52:11;98708.00;;;9.18;86.13
43820;BME280;67762;52.476;6.046;2023-03-14T02:54:37;98698.38;;;9.17;86.42
43820;BME280;67762;52.476;6.046;2023-03-14T02:57:03;98695.72;;;9.17;86.44
43820;BME280;67762;52.476;6.046;2023-03-14T02:59:29;98693.25;;;9.16;86.33
43820;BME280;67762;52.476;6.046;2023-03-14T03:01:59;98697.94;;;9.14;86.14
43820;BME280;67762;52.476;6.046;2023-03-14T03:04:25;98702.47;;;9.13;86.42
43820;BME280;67762;52.476;6.046;2023-03-14T03:06:50;98707.59;;;9.15;86.06
43820;BME280;67762;52.476;6.046;2023-03-14T03:09:16;98699.38;;;9.16;86.46
43820;BME280;67762;52.476;6.046;2023-03-14T03:11:42;98704.50;;;9.18;86.63
43820;BME280;67762;52.476;6.046;2023-03-14T03:14:11;98692.84;;;9.19;86.39
43820;BME280;67762;52.476;6.046;2023-03-14T03:16:37;98692.41;;;9.22;86.34
43820;BME280;67762;52.476;6.046;2023-03-14T03:19:03;98699.38;;;9.23;86.10
43820;BME280;67762;52.476;6.046;2023-03-14T03:21:28;98698.97;;;9.26;86.20
43820;BME280;67762;52.476;6.046;2023-03-14T03:23:54;98697.72;;;9.28;85.96
43820;BME280;67762;52.476;6.046;2023-03-14T03:26:19;98698.97;;;9.32;85.67
43820;BME280;67762;52.476;6.046;2023-03-14T03:28:45;98689.13;;;9.33;85.84
43820;BME280;67762;52.476;6.046;2023-03-14T03:31:12;98681.75;;;9.35;85.51
43820;BME280;67762;52.476;6.046;2023-03-14T03:33:38;98686.88;;;9.36;85.84
43820;BME280;67762;52.476;6.046;2023-03-14T03:36:05;98679.28;;;9.33;85.38
43820;BME280;67762;52.476;6.046;2023-03-14T03:38:34;98690.75;;;9.34;85.53
43820;BME280;67762;52.476;6.046;2023-03-14T03:41:06;98686.69;;;9.31;85.51
43820;BME280;67762;52.476;6.046;2023-03-14T03:43:32;98694.06;;;9.29;85.24
43820;BME280;67762;52.476;6.046;2023-03-14T03:46:03;98682.59;;;9.29;85.45
43820;BME280;67762;52.476;6.046;2023-03-14T03:48:29;98679.09;;;9.28;85.51
43820;BME280;67762;52.476;6.046;2023-03-14T03:50:54;98687.09;;;9.28;85.64
43820;BME280;67762;52.476;6.046;2023-03-14T03:53:22;98693.00;;;9.30;85.54
43820;BME280;67762;52.476;6.046;2023-03-14T03:55:47;98688.75;;;9.29;85.73
43820;BME280;67762;52.476;6.046;2023-03-14T03:58:13;98684.25;;;9.30;85.95
43820;BME280;67762;52.476;6.046;2023-03-14T04:00:39;98693.22;;;9.29;85.89
43820;BME280;67762;52.476;6.046;2023-03-14T04:03:05;98670.72;;;9.31;85.93
43820;BME280;67762;52.476;6.046;2023-03-14T04:05:30;98680.72;;;9.36;85.53
43820;BME280;67762;52.476;6.046;2023-03-14T04:08:01;98673.38;;;9.38;84.93
43820;BME280;67762;52.476;6.046;2023-03-14T04:10:29;98678.69;;;9.38;85.60
43820;BME280;67762;52.476;6.046;2023-03-14T04:13:09;98683.38;;;9.43;85.32
43820;BME280;67762;52.476;6.046;2023-03-14T04:15:37;98682.97;;;9.46;84.98
43820;BME280;67762;52.476;6.046;2023-03-14T04:18:09;98680.72;;;9.49;84.98
43820;BME280;67762;52.476;6.046;2023-03-14T04:20:35;98675.34;;;9.56;84.46
43820;BME280;67762;52.476;6.046;2023-03-14T04:23:01;98684.97;;;9.57;84.39
43820;BME280;67762;52.476;6.046;2023-03-14T04:25:27;98675.97;;;9.58;84.26
43820;BME280;67762;52.476;6.046;2023-03-14T04:27:55;98685.56;;;9.59;84.07
43820;BME280;67762;52.476;6.046;2023-03-14T04:30:24;98692.53;;;9.60;83.98
43820;BME280;67762;52.476;6.046;2023-03-14T04:32:56;98683.97;;;9.58;83.93
43820;BME280;67762;52.476;6.046;2023-03-14T04:35:24;98686.00;;;9.56;84.03
43820;BME280;67762;52.476;6.046;2023-03-14T04:37:53;98684.38;;;9.55;84.29
43820;BME280;67762;52.476;6.046;2023-03-14T04:40:20;98681.50;;;9.56;83.96
43820;BME280;67762;52.476;6.046;2023-03-14T04:42:47;98691.31;;;9.56;84.20
43820;BME280;67762;52.476;6.046;2023-03-14T04:45:13;98661.03;;;9.50;84.42
43820;BME280;67762;52.476;6.046;2023-03-14T04:47:40;98674.97;;;9.46;84.33
43820;BME280;67762;52.476;6.046;2023-03-14T04:50:08;98662.91;;;9.43;84.48
43820;BME280;67762;52.476;6.046;2023-03-14T04:52:34;98659.84;;;9.39;84.36
43820;BME280;67762;52.476;6.046;2023-03-14T04:55:01;98653.09;;;9.37;84.53
43820;BME280;67762;52.476;6.046;2023-03-14T04:57:27;98655.56;;;9.32;84.85
43820;BME280;67762;52.476;6.046;2023-03-14T04:59:53;98660.06;;;9.31;85.41
43820;BME280;67762;52.476;6.046;2023-03-14T05:02:37;98651.91;;;9.26;85.19
43820;BME280;67762;52.476;6.046;2023-03-14T05:05:20;98655.78;;;9.24;85.32
43820;BME280;67762;52.476;6.046;2023-03-14T05:08:04;98647.00;;;9.23;85.86
43820;BME280;67762;52.476;6.046;2023-03-14T05:10:39;98649.06;;;9.21;85.98
43820;BME280;67762;52.476;6.046;2023-03-14T05:13:26;98658.88;;;9.21;85.83
43820;BME280;67762;52.476;6.046;2023-03-14T05:16:15;98639.19;;;9.22;85.73
43820;BME280;67762;52.476;6.046;2023-03-14T05:18:47;98647.81;;;9.24;86.17
43820;BME280;67762;52.476;6.046;2023-03-14T05:21:36;98643.31;;;9.24;86.39
43820;BME280;67762;52.476;6.046;2023-03-14T05:24:14;98640.22;;;9.27;85.91
43820;BME280;67762;52.476;6.046;2023-03-14T05:27:05;98641.03;;;9.28;86.04
43820;BME280;67762;52.476;6.046;2023-03-14T05:29:34;98627.53;;;9.29;86.39
43820;BME280;67762;52.476;6.046;2023-03-14T05:32:19;98628.34;;;9.30;86.07
43820;BME280;67762;52.476;6.046;2023-03-14T05:35:06;98643.91;;;9.26;86.13
43820;BME280;67762;52.476;6.046;2023-03-14T05:37:39;98649.84;;;9.22;86.03
43820;BME280;67762;52.476;6.046;2023-03-14T05:40:23;98637.00;;;9.19;86.05
43820;BME280;67762;52.476;6.046;2023-03-14T05:43:07;98645.38;;;9.16;86.46
43820;BME280;67762;52.476;6.046;2023-03-14T05:45:58;98648.22;;;9.14;86.55
43820;BME280;67762;52.476;6.046;2023-03-14T05:48:33;98656.44;;;9.13;86.85
43820;BME280;67762;52.476;6.046;2023-03-14T05:51:01;98663.59;;;9.12;87.04
43820;BME280;67762;52.476;6.046;2023-03-14T05:53:46;98651.31;;;9.11;86.81
43820;BME280;67762;52.476;6.046;2023-03-14T05:56:30;98662.16;;;9.10;86.84
43820;BME280;67762;52.476;6.046;2023-03-14T05:59:05;98666.66;;;9.09;87.10
43820;BME280;67762;52.476;6.046;2023-03-14T06:01:53;98661.56;;;9.08;87.06
43820;BME280;67762;52.476;6.046;2023-03-14T06:04:22;98661.97;;;9.05;87.60
43820;BME280;67762;52.476;6.046;2023-03-14T06:06:53;98668.72;;;9.07;87.90
43820;BME280;67762;52.476;6.046;2023-03-14T06:09:20;98659.31;;;9.05;87.83
43820;BME280;67762;52.476;6.046;2023-03-14T06:11:47;98656.84;;;9.03;87.98
43820;BME280;67762;52.476;6.046;2023-03-14T06:14:13;98634.13;;;9.01;88.10
43820;BME280;67762;52.476;6.046;2023-03-14T06:16:42;98651.75;;;9.02;87.72
43820;BME280;67762;52.476;6.046;2023-03-14T06:19:08;98630.25;;;9.03;87.96
43820;BME280;67762;52.476;6.046;2023-03-14T06:21:35;98633.50;;;9.05;88.21
43820;BME280;67762;52.476;6.046;2023-03-14T06:24:00;98629.84;;;9.06;88.27
43820;BME280;67762;52.476;6.046;2023-03-14T06:26:28;98652.53;;;9.09;88.47
43820;BME280;67762;52.476;6.046;2023-03-14T06:28:54;98650.28;;;9.06;87.93
43820;BME280;67762;52.476;6.046;2023-03-14T06:31:20;98646.22;;;9.03;88.11
43820;BME280;67762;52.476;6.046;2023-03-14T06:33:52;98648.88;;;9.03;88.38
43820;BME280;67762;52.476;6.046;2023-03-14T06:36:19;98646.44;;;9.02;88.17
43820;BME280;67762;52.476;6.046;2023-03-14T06:38:46;98648.25;;;9.01;88.47
43820;BME280;67762;52.476;6.046;2023-03-14T06:41:12;98643.97;;;9.00;88.76
43820;BME280;67762;52.476;6.046;2023-03-14T06:43:40;98656.03;;;9.03;88.74
43820;BME280;67762;52.476;6.046;2023-03-14T06:46:07;98648.88;;;9.03;88.82
43820;BME280;67762;52.476;6.046;2023-03-14T06:48:35;98663.81;;;9.04;89.08
43820;BME280;67762;52.476;6.046;2023-03-14T06:51:01;98690.41;;;9.04;89.15
43820;BME280;67762;52.476;6.046;2023-03-14T06:53:39;98692.03;;;9.05;89.00
43820;BME280;67762;52.476;6.046;2023-03-14T06:56:05;98692.66;;;9.07;89.33
43820;BME280;67762;52.476;6.046;2023-03-14T06:58:32;98761.59;;;9.09;89.42
43820;BME280;67762;52.476;6.046;2023-03-14T07:00:59;98785.72;;;8.68;89.24
43820;BME280;67762;52.476;6.046;2023-03-14T07:03:30;98776.47;;;8.03;88.84
43820;BME280;67762;52.476;6.046;2023-03-14T07:05:56;98783.66;;;7.75;89.71
43820;BME280;67762;52.476;6.046;2023-03-14T07:08:21;98792.78;;;7.59;89.70
43820;BME280;67762;52.476;6.046;2023-03-14T07:10:47;98808.03;;;7.51;89.11
43820;BME280;67762;52.476;6.046;2023-03-14T07:13:13;98814.31;;;7.43;88.87
43820;BME280;67762;52.476;6.046;2023-03-14T07:15:53;98814.63;;;7.34;89.63
43820;BME280;67762;52.476;6.046;2023-03-14T07:18:19;98818.03;;;7.28;89.60
43820;BME280;67762;52.476;6.046;2023-03-14T07:20:45;98822.47;;;7.21;90.18
43820;BME280;67762;52.476;6.046;2023-03-14T07:23:12;98837.72;;;7.12;89.94
43820;BME280;67762;52.476;6.046;2023-03-14T07:25:44;98837.47;;;7.07;89.55
43820;BME280;67762;52.476;6.046;2023-03-14T07:28:09;98843.31;;;7.02;89.81
43820;BME280;67762;52.476;6.046;2023-03-14T07:30:37;98839.22;;;7.00;89.31
43820;BME280;67762;52.476;6.046;2023-03-14T07:33:10;98858.97;;;6.97;90.48
43820;BME280;67762;52.476;6.046;2023-03-14T07:35:37;98860.38;;;6.93;89.83
43820;BME280;67762;52.476;6.046;2023-03-14T07:38:02;98860.56;;;6.92;89.60
43820;BME280;67762;52.476;6.046;2023-03-14T07:40:34;98869.34;;;6.92;90.56
43820;BME280;67762;52.476;6.046;2023-03-14T07:43:02;98884.50;;;6.98;89.56
43820;BME280;67762;52.476;6.046;2023-03-14T07:45:39;98892.53;;;7.05;90.66
43820;BME280;67762;52.476;6.046;2023-03-14T07:48:04;98900.06;;;7.08;89.77
43820;BME280;67762;52.476;6.046;2023-03-14T07:50:30;98914.34;;;7.07;90.20
43820;BME280;67762;52.476;6.046;2023-03-14T07:52:55;98925.50;;;7.02;90.53
43820;BME280;67762;52.476;6.046;2023-03-14T07:55:21;98934.25;;;6.82;90.32
43820;BME280;67762;52.476;6.046;2023-03-14T07:57:47;98943.06;;;6.53;89.87
43820;BME280;67762;52.476;6.046;2023-03-14T08:00:16;98956.72;;;6.35;89.68
43820;BME280;67762;52.476;6.046;2023-03-14T08:02:46;98978.13;;;5.97;89.97
43820;BME280;67762;52.476;6.046;2023-03-14T08:05:16;98991.22;;;5.67;89.60
43820;BME280;67762;52.476;6.046;2023-03-14T08:07:42;99012.72;;;5.50;89.27
43820;BME280;67762;52.476;6.046;2023-03-14T08:10:08;99015.28;;;5.35;89.20
43820;BME280;67762;52.476;6.046;2023-03-14T08:12:34;99028.72;;;5.25;88.94
43820;BME280;67762;52.476;6.046;2023-03-14T08:15:00;99057.84;;;5.17;88.99
43820;BME280;67762;52.476;6.046;2023-03-14T08:17:26;99072.25;;;5.07;88.78
43820;BME280;67762;52.476;6.046;2023-03-14T08:19:52;99070.47;;;4.99;88.49
43820;BME280;67762;52.476;6.046;2023-03-14T08:22:17;99086.00;;;4.94;88.37
43820;BME280;67762;52.476;6.046;2023-03-14T08:24:43;99086.38;;;4.91;88.06
43820;BME280;67762;52.476;6.046;2023-03-14T08:27:08;99097.94;;;4.90;88.02
43820;BME280;67762;52.476;6.046;2023-03-14T08:29:34;99118.09;;;4.91;87.82
43820;BME280;67762;52.476;6.046;2023-03-14T08:32:00;99113.44;;;4.93;87.90
43820;BME280;67762;52.476;6.046;2023-03-14T08:34:25;99127.16;;;4.97;88.03
43820;BME280;67762;52.476;6.046;2023-03-14T08:36:51;99140.38;;;4.97;87.73
43820;BME280;67762;52.476;6.046;2023-03-14T08:39:17;99150.94;;;4.97;87.27
43820;BME280;67762;52.476;6.046;2023-03-14T08:41:42;99166.28;;;5.01;87.60
43820;BME280;67762;52.476;6.046;2023-03-14T08:44:10;99165.41;;;5.09;87.34
43820;BME280;67762;52.476;6.046;2023-03-14T08:46:39;99182.59;;;5.13;87.40
43820;BME280;67762;52.476;6.046;2023-03-14T08:49:04;99198.78;;;5.18;87.21
43820;BME280;67762;52.476;6.046;2023-03-14T08:51:30;99212.16;;;5.24;87.01
43820;BME280;67762;52.476;6.046;2023-03-14T08:53:56;99222.72;;;5.32;87.05
43820;BME280;67762;52.476;6.046;2023-03-14T08:56:21;99243.34;;;5.37;87.06
43820;BME280;67762;52.476;6.046;2023-03-14T08:58:47;99244.50;;;5.43;86.70
43820;BME280;67762;52.476;6.046;2023-03-14T09:01:13;99260.19;;;5.52;86.44
43820;BME280;67762;52.476;6.046;2023-03-14T09:03:38;99271.72;;;5.59;86.13
43820;BME280;67762;52.476;6.046;2023-03-14T09:06:06;99280.31;;;5.61;86.32
43820;BME280;67762;52.476;6.046;2023-03-14T09:08:32;99285.13;;;5.58;85.95
43820;BME280;67762;52.476;6.046;2023-03-14T09:10:58;99300.31;;;5.56;85.95
43820;BME280;67762;52.476;6.046;2023-03-14T09:13:24;99303.31;;;5.61;85.27
43820;BME280;67762;52.476;6.046;2023-03-14T09:15:51;99331.41;;;5.62;85.46
43820;BME280;67762;52.476;6.046;2023-03-14T09:18:17;99347.78;;;5.65;84.92
43820;BME280;67762;52.476;6.046;2023-03-14T09:20:42;99341.97;;;5.70;84.91
43820;BME280;67762;52.476;6.046;2023-03-14T09:23:08;99350.56;;;5.80;85.21
43820;BME280;67762;52.476;6.046;2023-03-14T09:25:33;99356.81;;;5.79;84.68
43820;BME280;67762;52.476;6.046;2023-03-14T09:27:59;99370.25;;;5.77;84.00
43820;BME280;67762;52.476;6.046;2023-03-14T09:30:25;99373.22;;;5.82;83.67
43820;BME280;67762;52.476;6.046;2023-03-14T09:32:50;99384.44;;;5.93;83.90
43820;BME280;67762;52.476;6.046;2023-03-14T09:35:16;99383.75;;;6.07;83.11
43820;BME280;67762;52.476;6.046;2023-03-14T09:37:42;99390.97;;;6.21;82.67
43820;BME280;67762;52.476;6.046;2023-03-14T09:40:12;99401.53;;;6.29;81.87
43820;BME280;67762;52.476;6.046;2023-03-14T09:42:39;99411.28;;;6.36;81.54
43820;BME280;67762;52.476;6.046;2023-03-14T09:45:54;99413.19;;;6.51;81.26
43820;BME280;67762;52.476;6.046;2023-03-14T09:47:55;99427.38;;;6.66;80.68
43820;BME280;67762;52.476;6.046;2023-03-14T09:50:23;99428.34;;;6.73;80.81
43820;BME280;67762;52.476;6.046;2023-03-14T09:52:51;99418.03;;;6.78;81.05
43820;BME280;67762;52.476;6.046;2023-03-14T09:55:22;99452.69;;;6.76;79.50
43820;BME280;67762;52.476;6.046;2023-03-14T09:57:56;99442.59;;;6.72;79.42
43820;BME280;67762;52.476;6.046;2023-03-14T10:00:26;99467.59;;;6.69;79.54
43820;BME280;67762;52.476;6.046;2023-03-14T10:03:00;99469.94;;;6.64;79.47
43820;BME280;67762;52.476;6.046;2023-03-14T10:05:32;99498.09;;;6.10;79.10
43820;BME280;67762;52.476;6.046;2023-03-14T10:07:58;99506.84;;;5.62;79.52
43820;BME280;67762;52.476;6.046;2023-03-14T10:10:25;99497.75;;;5.41;80.00
43820;BME280;67762;52.476;6.046;2023-03-14T10:12:59;99522.50;;;5.31;80.41
43820;BME280;67762;52.476;6.046;2023-03-14T10:15:30;99526.00;;;5.32;80.90
43820;BME280;67762;52.476;6.046;2023-03-14T10:17:59;99530.13;;;5.35;81.07
43820;BME280;67762;52.476;6.046;2023-03-14T10:20:41;99543.22;;;5.44;81.26
43820;BME280;67762;52.476;6.046;2023-03-14T10:25:37;99562.03;;;5.33;80.93
43820;BME280;67762;52.476;6.046;2023-03-14T10:28:05;99564.19;;;5.38;80.85
43820;BME280;67762;52.476;6.046;2023-03-14T10:30:44;99577.59;;;5.44;80.58
43820;BME280;67762;52.476;6.046;2023-03-14T10:33:12;99595.97;;;5.62;80.55
43820;BME280;67762;52.476;6.046;2023-03-14T10:35:45;99591.06;;;5.83;80.49
43820;BME280;67762;52.476;6.046;2023-03-14T10:38:14;99595.56;;;5.99;80.55
43820;BME280;67762;52.476;6.046;2023-03-14T10:40:47;99622.88;;;6.07;80.49
43820;BME280;67762;52.476;6.046;2023-03-14T10:43:21;99622.38;;;6.12;80.09
43820;BME280;67762;52.476;6.046;2023-03-14T10:46:05;99636.13;;;6.23;80.29
43820;BME280;67762;52.476;6.046;2023-03-14T10:48:35;99648.19;;;6.26;79.75
43820;BME280;67762;52.476;6.046;2023-03-14T10:51:18;99656.47;;;6.31;78.79
43820;BME280;67762;52.476;6.046;2023-03-14T10:53:50;99666.91;;;6.40;76.75
43820;BME280;67762;52.476;6.046;2023-03-14T10:56:22;99689.59;;;6.51;75.29
43820;BME280;67762;52.476;6.046;2023-03-14T10:58:50;99689.13;;;6.72;73.39
43820;BME280;67762;52.476;6.046;2023-03-14T11:09:55;99724.47;;;7.74;69.13
43820;BME280;67762;52.476;6.046;2023-03-14T11:12:41;99749.25;;;7.58;69.63
43820;BME280;67762;52.476;6.046;2023-03-14T11:15:25;99762.41;;;7.44;67.82
43820;BME280;67762;52.476;6.046;2023-03-14T11:23:52;99785.66;;;7.26;68.44
43820;BME280;67762;52.476;6.046;2023-03-14T11:26:37;99807.22;;;7.15;66.99
43820;BME280;67762;52.476;6.046;2023-03-14T11:29:16;99813.84;;;7.27;67.38
43820;BME280;67762;52.476;6.046;2023-03-14T11:31:44;99812.63;;;7.53;66.71
43820;BME280;67762;52.476;6.046;2023-03-14T11:34:36;99833.28;;;7.90;66.36
43820;BME280;67762;52.476;6.046;2023-03-14T11:37:11;99839.22;;;8.00;65.40
43820;BME280;67762;52.476;6.046;2023-03-14T11:39:43;99839.47;;;7.75;64.37
43820;BME280;67762;52.476;6.046;2023-03-14T11:42:20;99847.97;;;7.54;64.48
43820;BME280;67762;52.476;6.046;2023-03-14T11:44:48;99864.53;;;7.72;64.61
43820;BME280;67762;52.476;6.046;2023-03-14T11:47:51;99864.66;;;7.87;61.98
43820;BME280;67762;52.476;6.046;2023-03-14T11:50:24;99878.16;;;7.77;59.76
43820;BME280;67762;52.476;6.046;2023-03-14T11:53:01;99883.78;;;7.74;59.89
43820;BME280;67762;52.476;6.046;2023-03-14T11:55:32;99890.94;;;7.65;61.00
43820;BME280;67762;52.476;6.046;2023-03-14T11:58:02;99893.94;;;7.46;60.93
43820;BME280;67762;52.476;6.046;2023-03-14T12:00:29;99887.13;;;7.28;60.30
43820;BME280;67762;52.476;6.046;2023-03-14T12:08:42;99914.81;;;7.41;61.77
43820;BME280;67762;52.476;6.046;2023-03-14T12:20:11;99955.09;;;7.04;62.56
43820;BME280;67762;52.476;6.046;2023-03-14T12:22:46;99969.66;;;7.00;64.19
43820;BME280;67762;52.476;6.046;2023-03-14T12:25:19;99982.25;;;6.90;63.02
43820;BME280;67762;52.476;6.046;2023-03-14T12:30:40;99971.69;;;7.15;60.49
43820;BME280;67762;52.476;6.046;2023-03-14T12:35:36;99988.97;;;7.27;57.15
43820;BME280;67762;52.476;6.046;2023-03-14T12:38:04;99983.81;;;7.33;57.07
43820;BME280;67762;52.476;6.046;2023-03-14T12:40:39;99997.44;;;7.38;55.67
43820;BME280;67762;52.476;6.046;2023-03-14T12:43:25;100003.72;;;7.37;57.65
43820;BME280;67762;52.476;6.046;2023-03-14T12:48:39;100030.94;;;7.47;58.80
43820;BME280;67762;52.476;6.046;2023-03-14T12:51:12;100015.91;;;7.80;58.59
43820;BME280;67762;52.476;6.046;2023-03-14T13:02:20;100041.91;;;8.49;57.15
43820;BME280;67762;52.476;6.046;2023-03-14T13:05:05;100034.63;;;8.35;54.24
43820;BME280;67762;52.476;6.046;2023-03-14T13:10:17;100051.38;;;8.19;53.83
43820;BME280;67762;52.476;6.046;2023-03-14T13:12:54;100071.31;;;8.15;55.55
43820;BME280;67762;52.476;6.046;2023-03-14T13:15:29;100073.31;;;8.21;55.44
43820;BME280;67762;52.476;6.046;2023-03-14T13:18:03;100083.63;;;8.24;54.70
43820;BME280;67762;52.476;6.046;2023-03-14T13:20:41;100081.13;;;8.23;54.13
43820;BME280;67762;52.476;6.046;2023-03-14T13:23:19;100099.91;;;8.13;54.00
43820;BME280;67762;52.476;6.046;2023-03-14T13:25:45;100094.22;;;8.16;53.90
43820;BME280;67762;52.476;6.046;2023-03-14T13:28:14;100104.19;;;8.22;54.15
43820;BME280;67762;52.476;6.046;2023-03-14T13:30:42;100103.03;;;8.25;54.90
43820;BME280;67762;52.476;6.046;2023-03-14T13:33:20;100120.31;;;8.21;54.53
43820;BME280;67762;52.476;6.046;2023-03-14T13:35:49;100117.53;;;8.47;55.77
43820;BME280;67762;52.476;6.046;2023-03-14T13:38:20;100132.63;;;8.54;54.45
43820;BME280;67762;52.476;6.046;2023-03-14T13:40:49;100131.78;;;8.62;54.58
43820;BME280;67762;52.476;6.046;2023-03-14T13:43:16;100142.44;;;8.46;55.66
43820;BME280;67762;52.476;6.046;2023-03-14T13:45:49;100149.72;;;8.28;56.81
43820;BME280;67762;52.476;6.046;2023-03-14T13:48:16;100152.22;;;8.21;55.81
43820;BME280;67762;52.476;6.046;2023-03-14T13:50:49;100169.97;;;8.04;55.74
43820;BME280;67762;52.476;6.046;2023-03-14T13:53:15;100175.22;;;7.80;55.70
43820;BME280;67762;52.476;6.046;2023-03-14T13:55:41;100186.28;;;7.59;55.81
43820;BME280;67762;52.476;6.046;2023-03-14T13:58:18;100184.91;;;7.55;56.61
43820;BME280;67762;52.476;6.046;2023-03-14T14:00:54;100190.09;;;7.65;56.96
43820;BME280;67762;52.476;6.046;2023-03-14T14:03:20;100205.53;;;7.61;56.10
43820;BME280;67762;52.476;6.046;2023-03-14T14:05:45;100214.34;;;7.70;57.61
43820;BME280;67762;52.476;6.046;2023-03-14T14:08:12;100228.16;;;7.74;58.28
43820;BME280;67762;52.476;6.046;2023-03-14T14:10:37;100221.94;;;7.57;57.24
43820;BME280;67762;52.476;6.046;2023-03-14T14:13:06;100233.00;;;7.52;57.86
43820;BME280;67762;52.476;6.046;2023-03-14T14:15:38;100240.28;;;7.84;57.25
43820;BME280;67762;52.476;6.046;2023-03-14T14:18:06;100245.53;;;8.18;56.67
43820;BME280;67762;52.476;6.046;2023-03-14T14:20:44;100262.16;;;8.20;57.04
43820;BME280;67762;52.476;6.046;2023-03-14T14:23:14;100262.66;;;8.15;56.24